Time;durP1;ratioP1;P1;durP2;ratioP2;P2;SDS_P1;SDS_P2;PMS_P1;PMS_P2;Temp;Humidity;BMP_temperature;BMP_pressure;BME280_temperature;BME280_humidity;BME280_pressure;Samples;Min_cycle;Max_cycle;Signal;HPM_P1;HPM_P2
2021/01/23 00:02:05;;;;;;;23.17;11.27;;;;;;;;;;5050185;28;20029;-74
2021/01/23 00:04:32;;;;;;;18.38;11.18;;;;;;;;;;5054281;28;20021;-75
2021/01/23 00:06:58;;;;;;;27.20;13.20;;;;;;;;;;5054018;28;20074;-75
2021/01/23 00:09:24;;;;;;;21.80;12.15;;;;;;;;;;5054266;28;20052;-75
2021/01/23 00:11:51;;;;;;;29.30;12.15;;;;;;;;;;5055195;28;20048;-75
2021/01/23 00:14:17;;;;;;;18.10;11.13;;;;;;;;;;5054086;28;20024;-75
2021/01/23 00:16:43;;;;;;;21.17;11.77;;;;;;;;;;5054898;28;20024;-75
2021/01/23 00:19:09;;;;;;;25.88;11.07;;;;;;;;;;5055376;28;20017;-75
2021/01/23 00:21:35;;;;;;;23.05;12.32;;;;;;;;;;5053917;28;20048;-75
2021/01/23 00:24:02;;;;;;;27.38;12.90;;;;;;;;;;5054994;28;20033;-75
2021/01/23 00:26:27;;;;;;;16.70;11.02;;;;;;;;;;5053939;28;20499;-75
2021/01/23 00:28:54;;;;;;;18.75;10.23;;;;;;;;;;5054602;28;20480;-75
2021/01/23 00:31:20;;;;;;;27.15;11.60;;;;;;;;;;5055080;28;20020;-75
2021/01/23 00:33:46;;;;;;;23.95;12.00;;;;;;;;;;5053365;28;20469;-75
2021/01/23 00:36:12;;;;;;;25.55;11.63;;;;;;;;;;5053539;28;20021;-75
2021/01/23 00:38:38;;;;;;;23.70;11.10;;;;;;;;;;5054960;28;20147;-74
2021/01/23 00:41:04;;;;;;;21.10;11.05;;;;;;;;;;5054213;28;20544;-74
2021/01/23 00:43:30;;;;;;;20.60;10.48;;;;;;;;;;5054088;28;20048;-75
2021/01/23 00:45:56;;;;;;;20.00;10.70;;;;;;;;;;5053191;28;20036;-74
2021/01/23 00:48:22;;;;;;;20.77;11.85;;;;;;;;;;5053061;28;20021;-74
2021/01/23 00:50:48;;;;;;;24.23;12.32;;;;;;;;;;5053195;28;20048;-74
2021/01/23 00:53:14;;;;;;;22.73;11.70;;;;;;;;;;5054452;28;20055;-75
2021/01/23 00:55:40;;;;;;;21.27;11.13;;;;;;;;;;5054362;28;20013;-75
2021/01/23 00:58:06;;;;;;;26.52;11.57;;;;;;;;;;5054286;28;20024;-73
2021/01/23 01:00:32;;;;;;;23.38;11.43;;;;;;;;;;5053084;28;20017;-74
2021/01/23 01:02:58;;;;;;;24.25;11.18;;;;;;;;;;5052995;28;20056;-74
2021/01/23 01:05:24;;;;;;;23.40;12.10;;;;;;;;;;5053099;28;20013;-74
2021/01/23 01:07:50;;;;;;;28.23;11.38;;;;;;;;;;5052718;28;20032;-74
2021/01/23 01:10:16;;;;;;;20.05;12.00;;;;;;;;;;5053138;28;20048;-74
2021/01/23 01:12:42;;;;;;;22.13;10.88;;;;;;;;;;5054084;28;20075;-74
2021/01/23 01:15:09;;;;;;;26.58;11.45;;;;;;;;;;5051966;28;20384;-74
2021/01/23 01:17:35;;;;;;;25.58;11.10;;;;;;;;;;5052946;28;20512;-74
2021/01/23 01:20:01;;;;;;;25.02;11.80;;;;;;;;;;5054027;28;20044;-74
2021/01/23 01:22:28;;;;;;;24.08;11.65;;;;;;;;;;5054027;28;20032;-74
2021/01/23 01:24:54;;;;;;;22.20;11.40;;;;;;;;;;5052543;28;20112;-75
2021/01/23 01:27:20;;;;;;;22.10;11.18;;;;;;;;;;5052731;28;20059;-74
2021/01/23 01:29:47;;;;;;;17.13;11.75;;;;;;;;;;5053743;28;20052;-75
2021/01/23 01:32:13;;;;;;;19.38;11.55;;;;;;;;;;5052611;28;20028;-74
2021/01/23 01:34:39;;;;;;;22.15;11.88;;;;;;;;;;5052550;28;20025;-74
2021/01/23 01:37:05;;;;;;;20.10;12.63;;;;;;;;;;5052164;28;20036;-75
2021/01/23 01:39:31;;;;;;;23.52;12.20;;;;;;;;;;5053525;28;20134;-75
2021/01/23 01:41:56;;;;;;;25.90;12.15;;;;;;;;;;5053176;28;20040;-74
2021/01/23 01:44:22;;;;;;;24.08;12.10;;;;;;;;;;5054026;28;20021;-75
2021/01/23 01:46:49;;;;;;;30.45;12.45;;;;;;;;;;5053227;28;20060;-75
2021/01/23 01:49:15;;;;;;;23.05;12.27;;;;;;;;;;5053345;28;20009;-75
2021/01/23 01:51:41;;;;;;;21.23;12.82;;;;;;;;;;5053573;28;20016;-75
2021/01/23 01:54:07;;;;;;;22.55;12.45;;;;;;;;;;5051947;28;20017;-76
2021/01/23 01:56:33;;;;;;;21.67;11.93;;;;;;;;;;5053447;28;20017;-75
2021/01/23 01:58:59;;;;;;;24.10;11.05;;;;;;;;;;5051916;28;20111;-75
2021/01/23 02:01:25;;;;;;;24.30;12.38;;;;;;;;;;5052035;28;20113;-74
2021/01/23 02:03:54;;;;;;;21.63;11.88;;;;;;;;;;5053411;28;20048;-74
2021/01/23 02:06:32;;;;;;;21.92;11.55;;;;;;;;;;5053574;28;20060;-75
2021/01/23 02:09:11;;;;;;;25.52;12.48;;;;;;;;;;5053145;28;20090;-75
2021/01/23 02:11:40;;;;;;;23.05;13.02;;;;;;;;;;5053512;28;20098;-75
2021/01/23 02:14:05;;;;;;;22.23;12.38;;;;;;;;;;5051602;28;20052;-75
2021/01/23 02:16:35;;;;;;;23.77;11.85;;;;;;;;;;5051780;28;20454;-75
2021/01/23 02:19:03;;;;;;;21.48;12.18;;;;;;;;;;5051547;28;20052;-76
2021/01/23 02:21:45;;;;;;;22.88;13.23;;;;;;;;;;5051574;28;20414;-75
2021/01/23 02:24:11;;;;;;;20.58;12.35;;;;;;;;;;5051717;28;20052;-75
2021/01/23 02:26:56;;;;;;;26.52;13.30;;;;;;;;;;5052988;28;20096;-76
2021/01/23 02:29:23;;;;;;;23.88;12.55;;;;;;;;;;5051556;28;20025;-75
2021/01/23 02:31:51;;;;;;;19.63;11.82;;;;;;;;;;5051279;28;20142;-75
2021/01/23 02:34:19;;;;;;;26.77;12.15;;;;;;;;;;5051395;28;20078;-75
2021/01/23 02:36:46;;;;;;;23.90;12.45;;;;;;;;;;5051051;28;20017;-75
2021/01/23 02:39:12;;;;;;;22.15;12.43;;;;;;;;;;5051379;28;20021;-75
2021/01/23 02:41:39;;;;;;;22.73;12.55;;;;;;;;;;5051372;28;20063;-75
2021/01/23 02:44:05;;;;;;;23.80;13.57;;;;;;;;;;5050813;28;20036;-75
2021/01/23 02:46:31;;;;;;;24.45;12.52;;;;;;;;;;5052471;28;20024;-74
2021/01/23 02:48:57;;;;;;;27.58;12.75;;;;;;;;;;5052338;28;20057;-75
2021/01/23 02:51:26;;;;;;;20.70;11.52;;;;;;;;;;5052205;28;20388;-75
2021/01/23 02:53:55;;;;;;;27.35;13.57;;;;;;;;;;5052237;28;20020;-75
2021/01/23 02:56:24;;;;;;;23.30;12.25;;;;;;;;;;5051186;28;20071;-75
2021/01/23 02:58:51;;;;;;;26.52;12.85;;;;;;;;;;5050631;28;20013;-74
2021/01/23 03:01:19;;;;;;;20.02;12.75;;;;;;;;;;5052341;28;20021;-75
2021/01/23 03:03:45;;;;;;;24.55;13.63;;;;;;;;;;5052049;28;20047;-76
2021/01/23 03:06:11;;;;;;;21.15;12.25;;;;;;;;;;5051803;28;20050;-75
2021/01/23 03:08:43;;;;;;;29.85;13.43;;;;;;;;;;5052255;28;20013;-75
2021/01/23 03:11:09;;;;;;;20.98;12.45;;;;;;;;;;5051958;28;20017;-75
2021/01/23 03:13:35;;;;;;;24.83;12.27;;;;;;;;;;5050878;28;20017;-75
2021/01/23 03:16:01;;;;;;;22.65;13.52;;;;;;;;;;5050677;28;20028;-74
2021/01/23 03:18:27;;;;;;;22.08;12.75;;;;;;;;;;5050827;28;20021;-75
2021/01/23 03:20:53;;;;;;;24.30;12.25;;;;;;;;;;5050621;28;20075;-75
2021/01/23 03:23:19;;;;;;;21.67;12.25;;;;;;;;;;5050801;28;20024;-74
2021/01/23 03:25:45;;;;;;;17.98;11.77;;;;;;;;;;5052382;28;20027;-74
2021/01/23 03:28:11;;;;;;;21.42;12.10;;;;;;;;;;5051503;28;20095;-75
2021/01/23 03:30:37;;;;;;;22.25;11.40;;;;;;;;;;5052087;28;20047;-75
2021/01/23 03:33:03;;;;;;;21.90;11.63;;;;;;;;;;5051763;28;20441;-75
2021/01/23 03:35:29;;;;;;;18.30;11.65;;;;;;;;;;5050655;28;20021;-75
2021/01/23 03:37:55;;;;;;;21.63;11.60;;;;;;;;;;5051811;28;20374;-75
2021/01/23 03:40:21;;;;;;;21.50;11.30;;;;;;;;;;5054677;28;20445;-75
2021/01/23 03:42:47;;;;;;;24.38;11.88;;;;;;;;;;5054300;28;20098;-76
2021/01/23 03:45:13;;;;;;;24.55;11.07;;;;;;;;;;5055619;28;20025;-76
2021/01/23 03:47:39;;;;;;;15.13;10.32;;;;;;;;;;5055842;28;20029;-75
2021/01/23 03:50:09;;;;;;;22.48;10.57;;;;;;;;;;5054297;28;20056;-75
2021/01/23 03:52:36;;;;;;;17.13;9.02;;;;;;;;;;5054450;28;20511;-75
2021/01/23 03:55:03;;;;;;;17.00;9.52;;;;;;;;;;5055457;28;20021;-75
2021/01/23 03:57:29;;;;;;;11.50;6.22;;;;;;;;;;5054411;28;20047;-76
2021/01/23 03:59:55;;;;;;;17.67;9.35;;;;;;;;;;5055425;28;20056;-75
2021/01/23 04:02:21;;;;;;;21.50;11.02;;;;;;;;;;5055619;28;20025;-74
2021/01/23 04:04:47;;;;;;;15.27;9.23;;;;;;;;;;5054241;28;20036;-75
2021/01/23 04:07:13;;;;;;;16.50;9.20;;;;;;;;;;5055190;28;20055;-75
2021/01/23 04:09:39;;;;;;;17.45;9.65;;;;;;;;;;5055442;28;20024;-75
2021/01/23 04:12:05;;;;;;;19.27;9.23;;;;;;;;;;5053962;28;20021;-76
2021/01/23 04:14:31;;;;;;;17.60;10.95;;;;;;;;;;5053918;28;20021;-75
2021/01/23 04:16:57;;;;;;;17.90;9.77;;;;;;;;;;5055040;28;20028;-75
2021/01/23 04:19:23;;;;;;;16.35;8.48;;;;;;;;;;5053915;28;20362;-75
2021/01/23 04:21:49;;;;;;;16.02;8.85;;;;;;;;;;5053856;28;20025;-76
2021/01/23 04:24:15;;;;;;;17.83;10.25;;;;;;;;;;5054637;28;20116;-75
2021/01/23 04:26:41;;;;;;;16.73;10.45;;;;;;;;;;5053888;28;20021;-75
2021/01/23 04:29:08;;;;;;;19.10;7.55;;;;;;;;;;5053620;28;20021;-75
2021/01/23 04:31:34;;;;;;;18.17;10.15;;;;;;;;;;5053524;28;20116;-74
2021/01/23 04:34:00;;;;;;;15.85;7.53;;;;;;;;;;5053243;28;20025;-75
2021/01/23 04:36:27;;;;;;;21.00;10.40;;;;;;;;;;5054869;28;20021;-74
2021/01/23 04:38:53;;;;;;;16.20;9.57;;;;;;;;;;5054608;28;20024;-75
2021/01/23 04:41:19;;;;;;;18.35;9.38;;;;;;;;;;5054473;28;20473;-74
2021/01/23 04:43:46;;;;;;;16.83;8.63;;;;;;;;;;5053058;28;20110;-75
2021/01/23 04:46:12;;;;;;;19.58;10.77;;;;;;;;;;5053115;28;20017;-75
2021/01/23 04:48:38;;;;;;;19.25;9.98;;;;;;;;;;5053384;28;20025;-75
2021/01/23 04:51:05;;;;;;;17.42;9.98;;;;;;;;;;5054553;28;20096;-75
2021/01/23 04:53:32;;;;;;;14.07;9.23;;;;;;;;;;5053369;28;20512;-75
2021/01/23 04:55:58;;;;;;;16.17;9.32;;;;;;;;;;5054373;28;20024;-75
2021/01/23 04:58:24;;;;;;;19.95;9.63;;;;;;;;;;5053306;28;20021;-75
2021/01/23 05:00:50;;;;;;;16.65;9.10;;;;;;;;;;5054471;28;20096;-75
2021/01/23 05:03:16;;;;;;;18.40;9.60;;;;;;;;;;5054295;28;20062;-75
2021/01/23 05:05:42;;;;;;;13.93;8.40;;;;;;;;;;5053105;28;20021;-75
2021/01/23 05:08:12;;;;;;;18.65;9.60;;;;;;;;;;5053965;28;20025;-75
2021/01/23 05:10:39;;;;;;;18.15;10.07;;;;;;;;;;5053028;28;20396;-75
2021/01/23 05:13:18;;;;;;;19.02;9.63;;;;;;;;;;5054406;28;20048;-76
2021/01/23 05:15:44;;;;;;;18.30;9.98;;;;;;;;;;5054265;28;20021;-75
2021/01/23 05:18:11;;;;;;;14.65;8.00;;;;;;;;;;5052642;28;20013;-76
2021/01/23 05:20:41;;;;;;;18.75;9.93;;;;;;;;;;5052890;28;20028;-75
2021/01/23 05:23:13;;;;;;;18.42;11.40;;;;;;;;;;5052547;28;20465;-75
2021/01/23 05:25:40;;;;;;;15.00;9.15;;;;;;;;;;5052762;28;20471;-75
2021/01/23 05:28:07;;;;;;;20.00;10.50;;;;;;;;;;5053829;28;20020;-75
2021/01/23 05:30:59;;;;;;;15.88;9.20;;;;;;;;;;5053042;28;20023;-75
2021/01/23 05:33:26;;;;;;;20.50;10.20;;;;;;;;;;5052439;28;20025;-76
2021/01/23 05:36:11;;;;;;;15.60;10.30;;;;;;;;;;5052585;28;20025;-76
2021/01/23 05:38:38;;;;;;;17.10;9.95;;;;;;;;;;5053874;28;20021;-76
2021/01/23 05:41:04;;;;;;;17.88;11.05;;;;;;;;;;5052151;28;20064;-76
2021/01/23 05:43:31;;;;;;;23.95;12.38;;;;;;;;;;5053737;28;20444;-75
2021/01/23 05:45:57;;;;;;;19.70;12.25;;;;;;;;;;5053689;28;20017;-75
2021/01/23 05:48:23;;;;;;;17.17;10.25;;;;;;;;;;5053613;28;20071;-75
2021/01/23 05:50:50;;;;;;;16.73;9.50;;;;;;;;;;5053630;28;20021;-75
2021/01/23 05:53:16;;;;;;;20.80;12.15;;;;;;;;;;5051980;28;20025;-75
2021/01/23 05:55:42;;;;;;;20.13;11.88;;;;;;;;;;5053513;28;20017;-75
2021/01/23 05:58:08;;;;;;;14.77;9.30;;;;;;;;;;5053465;28;20026;-76
2021/01/23 06:00:34;;;;;;;19.90;10.40;;;;;;;;;;5052840;28;20044;-76
2021/01/23 06:03:01;;;;;;;16.45;10.05;;;;;;;;;;5053010;28;20072;-76
2021/01/23 06:05:27;;;;;;;17.45;11.30;;;;;;;;;;5052067;28;20028;-75
2021/01/23 06:07:53;;;;;;;17.55;10.77;;;;;;;;;;5051894;28;20484;-75
2021/01/23 06:10:22;;;;;;;16.77;11.18;;;;;;;;;;5051729;28;20116;-75
2021/01/23 06:12:49;;;;;;;20.50;11.82;;;;;;;;;;5051902;28;20078;-76
2021/01/23 06:15:50;;;;;;;24.75;12.45;;;;;;;;;;5052628;28;20040;-75
2021/01/23 06:18:21;;;;;;;18.42;9.13;;;;;;;;;;5050239;28;20079;-75
2021/01/23 06:20:48;;;;;;;19.48;11.02;;;;;;;;;;5052458;28;20057;-75
2021/01/23 06:23:16;;;;;;;20.08;11.32;;;;;;;;;;5052798;28;20017;-75
2021/01/23 06:25:51;;;;;;;19.50;10.32;;;;;;;;;;5051649;28;20021;-75
2021/01/23 06:28:18;;;;;;;15.55;9.82;;;;;;;;;;5052693;28;20043;-75
2021/01/23 06:30:44;;;;;;;22.33;11.68;;;;;;;;;;5051553;28;20070;-75
2021/01/23 06:33:22;;;;;;;24.73;11.23;;;;;;;;;;5052592;28;20092;-75
2021/01/23 06:36:06;;;;;;;19.08;10.25;;;;;;;;;;5052746;28;20024;-75
2021/01/23 06:38:33;;;;;;;18.67;10.50;;;;;;;;;;5051280;28;20055;-74
2021/01/23 06:41:18;;;;;;;20.70;10.10;;;;;;;;;;5051306;28;20417;-74
2021/01/23 06:44:03;;;;;;;18.17;11.70;;;;;;;;;;5051211;28;20102;-74
2021/01/23 06:46:29;;;;;;;22.38;12.68;;;;;;;;;;5051226;28;20021;-74
2021/01/23 06:49:05;;;;;;;18.08;12.02;;;;;;;;;;5051213;28;20024;-74
2021/01/23 06:51:31;;;;;;;20.02;11.88;;;;;;;;;;5051233;28;20021;-74
2021/01/23 06:54:10;;;;;;;23.38;12.15;;;;;;;;;;5051150;28;20029;-74
2021/01/23 06:56:36;;;;;;;19.83;10.25;;;;;;;;;;5051004;28;20021;-74
2021/01/23 06:59:03;;;;;;;20.52;12.63;;;;;;;;;;5052195;28;20045;-74
2021/01/23 07:01:29;;;;;;;22.50;12.32;;;;;;;;;;5051026;28;20032;-74
2021/01/23 07:03:55;;;;;;;24.23;13.35;;;;;;;;;;5052258;28;20017;-75
2021/01/23 07:06:31;;;;;;;22.63;12.00;;;;;;;;;;5051676;28;20377;-75
2021/01/23 07:08:57;;;;;;;18.58;10.82;;;;;;;;;;5050843;28;20021;-75
2021/01/23 07:11:23;;;;;;;17.65;11.82;;;;;;;;;;5051755;28;20047;-75
2021/01/23 07:14:06;;;;;;;22.38;13.13;;;;;;;;;;5051556;28;20047;-74
2021/01/23 07:16:33;;;;;;;23.05;12.98;;;;;;;;;;5052173;28;20017;-74
2021/01/23 07:19:00;;;;;;;24.33;13.30;;;;;;;;;;5052086;28;20163;-75
2021/01/23 07:21:27;;;;;;;17.75;11.00;;;;;;;;;;5050574;28;20096;-74
2021/01/23 07:23:54;;;;;;;22.25;13.57;;;;;;;;;;5052066;28;20024;-75
2021/01/23 07:26:20;;;;;;;19.60;12.68;;;;;;;;;;5050446;28;20024;-75
2021/01/23 07:28:48;;;;;;;19.60;11.20;;;;;;;;;;5050663;28;20025;-74
2021/01/23 07:31:21;;;;;;;17.80;10.50;;;;;;;;;;5050380;28;20037;-74
2021/01/23 07:33:48;;;;;;;22.95;12.18;;;;;;;;;;5051827;28;20021;-74
2021/01/23 07:36:47;;;;;;;19.63;12.32;;;;;;;;;;5050183;28;20021;-74
2021/01/23 07:39:17;;;;;;;23.30;13.57;;;;;;;;;;5042044;28;20124;-74
2021/01/23 07:41:51;;;;;;;24.60;13.15;;;;;;;;;;5059168;28;20032;-76
2021/01/23 07:44:18;;;;;;;24.23;13.20;;;;;;;;;;5069913;28;20123;-75
2021/01/23 07:46:45;;;;;;;23.77;14.13;;;;;;;;;;5071547;28;20449;-75
2021/01/23 07:49:31;;;;;;;23.90;13.07;;;;;;;;;;5070167;28;20016;-76
2021/01/23 07:52:07;;;;;;;23.08;12.93;;;;;;;;;;5067490;28;20064;-76
2021/01/23 07:54:33;;;;;;;25.30;13.05;;;;;;;;;;5070447;28;20134;-76
2021/01/23 07:57:00;;;;;;;21.05;13.70;;;;;;;;;;5070277;28;20021;-76
2021/01/23 07:59:42;;;;;;;21.60;12.93;;;;;;;;;;5070102;28;20086;-76
2021/01/23 08:02:08;;;;;;;24.67;13.98;;;;;;;;;;5071410;28;20043;-76
2021/01/23 08:04:35;;;;;;;22.10;13.27;;;;;;;;;;5067951;28;20056;-76
2021/01/23 08:07:16;;;;;;;21.08;13.75;;;;;;;;;;5060055;28;20024;-75
2021/01/23 08:09:42;;;;;;;22.42;13.05;;;;;;;;;;5061442;28;20100;-76
2021/01/23 08:12:18;;;;;;;20.85;11.93;;;;;;;;;;5058327;28;20103;-76
2021/01/23 08:14:51;;;;;;;21.40;12.13;;;;;;;;;;5059399;28;20052;-76
2021/01/23 08:17:17;;;;;;;24.08;12.63;;;;;;;;;;5058177;28;20017;-76
2021/01/23 08:19:50;;;;;;;23.33;12.88;;;;;;;;;;5060042;28;20090;-75
2021/01/23 08:22:17;;;;;;;22.85;11.35;;;;;;;;;;5059355;28;20487;-76
2021/01/23 08:24:42;;;;;;;19.80;11.52;;;;;;;;;;5060590;28;20385;-76
2021/01/23 08:27:35;;;;;;;19.90;11.52;;;;;;;;;;5063019;28;20043;-76
2021/01/23 08:30:01;;;;;;;24.52;12.85;;;;;;;;;;5063142;28;20068;-76
2021/01/23 08:32:27;;;;;;;16.80;10.07;;;;;;;;;;5064801;28;20090;-76
2021/01/23 08:34:53;;;;;;;17.10;9.65;;;;;;;;;;5062504;28;20361;-76
2021/01/23 08:37:19;;;;;;;17.83;10.68;;;;;;;;;;5061621;28;20027;-76
2021/01/23 08:39:49;;;;;;;15.35;9.00;;;;;;;;;;5053559;28;20473;-75
2021/01/23 08:42:15;;;;;;;16.75;9.18;;;;;;;;;;5052869;28;20044;-75
2021/01/23 08:44:41;;;;;;;17.98;11.00;;;;;;;;;;5053257;28;20021;-75
2021/01/23 08:47:07;;;;;;;14.25;8.25;;;;;;;;;;5053128;28;20475;-75
2021/01/23 08:49:33;;;;;;;13.85;7.47;;;;;;;;;;5054748;28;20024;-75
2021/01/23 08:51:59;;;;;;;11.60;7.05;;;;;;;;;;5054480;28;20017;-75
2021/01/23 08:54:26;;;;;;;24.25;7.70;;;;;;;;;;5054437;28;20446;-75
2021/01/23 08:56:52;;;;;;;20.63;7.95;;;;;;;;;;5053194;28;20306;-75
2021/01/23 08:59:30;;;;;;;13.23;7.65;;;;;;;;;;5028095;28;704246;-75
2021/01/23 09:01:56;;;;;;;15.43;8.43;;;;;;;;;;5011814;28;20446;-75
2021/01/23 09:04:22;;;;;;;15.35;8.23;;;;;;;;;;5011634;28;20010;-75
2021/01/23 09:06:48;;;;;;;17.70;7.03;;;;;;;;;;5029574;28;20021;-78
2021/01/23 09:09:14;;;;;;;16.33;8.38;;;;;;;;;;5011585;28;20025;-77
2021/01/23 09:11:41;;;;;;;14.43;8.05;;;;;;;;;;5029360;28;20097;-77
2021/01/23 09:14:07;;;;;;;12.48;8.05;;;;;;;;;;5029709;28;20021;-78
2021/01/23 09:16:33;;;;;;;17.52;7.60;;;;;;;;;;5011699;28;20072;-78
2021/01/23 09:18:59;;;;;;;11.88;7.22;;;;;;;;;;5011626;28;20061;-78
2021/01/23 09:21:26;;;;;;;11.95;7.25;;;;;;;;;;5011463;28;20148;-78
2021/01/23 09:23:52;;;;;;;15.27;6.95;;;;;;;;;;5007971;28;20018;-78
2021/01/23 09:26:18;;;;;;;11.25;6.32;;;;;;;;;;5018803;28;20025;-77
2021/01/23 09:28:44;;;;;;;14.30;6.53;;;;;;;;;;5018545;28;20022;-77
2021/01/23 09:31:22;;;;;;;7.45;4.10;;;;;;;;;;4999465;28;20014;-79
2021/01/23 09:33:50;;;;;;;9.85;5.00;;;;;;;;;;5017730;28;20411;-78
2021/01/23 09:36:16;;;;;;;13.60;5.63;;;;;;;;;;5016929;28;20020;-77
2021/01/23 09:38:42;;;;;;;10.50;5.85;;;;;;;;;;5001334;28;20108;-77
2021/01/23 09:41:10;;;;;;;13.40;5.80;;;;;;;;;;5001104;28;20016;-78
2021/01/23 09:43:36;;;;;;;9.85;5.55;;;;;;;;;;5017169;28;20025;-77
2021/01/23 09:46:02;;;;;;;11.75;5.68;;;;;;;;;;5007383;28;20007;-77
2021/01/23 09:48:28;;;;;;;10.73;5.55;;;;;;;;;;4981255;28;20077;-78
2021/01/23 09:50:54;;;;;;;11.43;5.10;;;;;;;;;;4999383;28;20090;-78
2021/01/23 09:53:20;;;;;;;10.05;5.55;;;;;;;;;;4980319;28;20019;-77
2021/01/23 09:55:46;;;;;;;11.52;5.28;;;;;;;;;;4980373;28;20056;-77
2021/01/23 09:58:12;;;;;;;13.38;5.97;;;;;;;;;;4981147;28;20070;-78
2021/01/23 10:00:38;;;;;;;8.43;5.18;;;;;;;;;;4980068;28;20077;-78
2021/01/23 10:03:05;;;;;;;10.40;5.40;;;;;;;;;;4980512;28;20081;-78
2021/01/23 10:05:31;;;;;;;11.60;4.65;;;;;;;;;;4981237;28;20022;-78
2021/01/23 10:07:57;;;;;;;9.98;5.10;;;;;;;;;;4979405;28;20022;-78
2021/01/23 10:10:24;;;;;;;8.13;4.70;;;;;;;;;;4969996;28;20055;-80
2021/01/23 10:12:51;;;;;;;9.38;4.85;;;;;;;;;;4963233;28;20395;-78
2021/01/23 10:15:17;;;;;;;7.65;4.07;;;;;;;;;;4958327;28;20031;-77
2021/01/23 10:17:43;;;;;;;9.02;4.93;;;;;;;;;;4976121;28;20025;-77
2021/01/23 10:20:10;;;;;;;9.70;4.55;;;;;;;;;;4975887;28;20023;-77
2021/01/23 10:22:36;;;;;;;11.00;4.57;;;;;;;;;;4976918;28;20069;-76
2021/01/23 10:25:03;;;;;;;10.65;4.18;;;;;;;;;;4976081;28;20014;-76
2021/01/23 10:27:29;;;;;;;10.48;4.38;;;;;;;;;;4958430;28;20045;-76
2021/01/23 10:29:55;;;;;;;9.75;4.60;;;;;;;;;;4958520;28;20026;-76
2021/01/23 10:32:21;;;;;;;10.85;4.75;;;;;;;;;;4975954;28;20111;-77
2021/01/23 10:34:47;;;;;;;7.57;4.57;;;;;;;;;;4975752;28;20466;-76
2021/01/23 10:37:13;;;;;;;9.50;4.45;;;;;;;;;;4961738;28;20026;-76
2021/01/23 10:39:39;;;;;;;9.18;3.95;;;;;;;;;;4977605;28;20033;-76
2021/01/23 10:42:05;;;;;;;9.27;3.78;;;;;;;;;;4995106;28;20025;-76
2021/01/23 10:44:31;;;;;;;11.02;5.47;;;;;;;;;;4977115;28;20022;-76
2021/01/23 10:46:57;;;;;;;9.30;4.80;;;;;;;;;;4977371;28;20022;-76
2021/01/23 10:49:23;;;;;;;10.95;4.65;;;;;;;;;;4994780;28;20102;-76
2021/01/23 10:51:49;;;;;;;13.43;5.70;;;;;;;;;;4977643;28;20022;-77
2021/01/23 10:54:16;;;;;;;12.63;4.95;;;;;;;;;;4995066;28;20019;-77
2021/01/23 10:56:42;;;;;;;10.00;4.70;;;;;;;;;;4977347;28;20121;-77
2021/01/23 10:59:09;;;;;;;9.65;4.95;;;;;;;;;;4994625;28;20049;-77
2021/01/23 11:01:35;;;;;;;17.73;4.43;;;;;;;;;;4976956;28;20026;-77
2021/01/23 11:04:01;;;;;;;15.55;5.13;;;;;;;;;;4994638;28;20041;-77
2021/01/23 11:06:27;;;;;;;12.98;4.97;;;;;;;;;;4977121;28;20459;-77
2021/01/23 11:08:53;;;;;;;10.98;5.78;;;;;;;;;;4977099;28;20455;-77
2021/01/23 11:11:19;;;;;;;10.82;4.93;;;;;;;;;;4976841;28;20029;-77
2021/01/23 11:13:45;;;;;;;9.70;5.72;;;;;;;;;;4969925;28;20398;-77
2021/01/23 11:16:11;;;;;;;12.52;5.32;;;;;;;;;;4957610;28;20122;-77
2021/01/23 11:18:37;;;;;;;9.85;5.32;;;;;;;;;;4974608;28;20434;-76
2021/01/23 11:21:04;;;;;;;12.75;5.55;;;;;;;;;;4956656;28;20370;-79
2021/01/23 11:23:30;;;;;;;11.65;6.20;;;;;;;;;;4957341;28;20081;-79
2021/01/23 11:25:56;;;;;;;13.60;5.65;;;;;;;;;;4957456;28;20022;-79
2021/01/23 11:28:22;;;;;;;15.80;5.43;;;;;;;;;;4974608;28;20027;-78
2021/01/23 11:30:49;;;;;;;10.10;4.88;;;;;;;;;;4957475;28;20019;-79
2021/01/23 11:33:16;;;;;;;12.02;5.47;;;;;;;;;;4957219;28;20014;-79
2021/01/23 11:35:42;;;;;;;10.00;5.85;;;;;;;;;;4974746;28;20046;-78
2021/01/23 11:38:08;;;;;;;11.98;4.85;;;;;;;;;;4974599;28;20029;-78
2021/01/23 11:40:34;;;;;;;8.70;5.07;;;;;;;;;;4974735;28;20042;-78
2021/01/23 11:43:00;;;;;;;10.45;4.93;;;;;;;;;;4974406;28;20015;-79
2021/01/23 11:45:26;;;;;;;9.60;4.68;;;;;;;;;;4957283;28;20023;-78
2021/01/23 11:47:52;;;;;;;8.63;4.53;;;;;;;;;;4975973;28;20098;-78
2021/01/23 11:50:18;;;;;;;8.77;4.68;;;;;;;;;;4958253;28;20444;-78
2021/01/23 11:52:44;;;;;;;10.15;4.43;;;;;;;;;;4958256;28;20058;-78
2021/01/23 11:55:10;;;;;;;9.85;4.47;;;;;;;;;;4974291;28;20051;-79
2021/01/23 11:57:36;;;;;;;10.45;4.85;;;;;;;;;;4956474;28;20050;-78
2021/01/23 12:00:04;;;;;;;8.10;3.55;;;;;;;;;;4956795;28;20054;-78
2021/01/23 12:02:30;;;;;;;7.55;4.03;;;;;;;;;;4956577;28;20073;-78
2021/01/23 12:04:56;;;;;;;10.00;4.18;;;;;;;;;;4956882;28;20022;-78
2021/01/23 12:07:22;;;;;;;7.78;3.75;;;;;;;;;;4973640;28;20073;-77
2021/01/23 12:09:48;;;;;;;6.72;3.75;;;;;;;;;;4956682;28;20033;-78
2021/01/23 12:12:15;;;;;;;8.32;4.03;;;;;;;;;;4956753;28;20085;-78
2021/01/23 12:14:42;;;;;;;9.13;3.45;;;;;;;;;;4956787;28;20070;-78
2021/01/23 12:17:08;;;;;;;10.20;4.05;;;;;;;;;;4972894;28;20014;-77
2021/01/23 12:19:34;;;;;;;12.77;5.97;;;;;;;;;;4975678;28;20044;-78
2021/01/23 12:22:00;;;;;;;13.07;4.97;;;;;;;;;;4993222;28;20407;-78
2021/01/23 12:24:26;;;;;;;8.35;4.20;;;;;;;;;;4975553;28;20025;-77
2021/01/23 12:26:52;;;;;;;16.08;5.72;;;;;;;;;;4975814;28;20023;-78
2021/01/23 12:29:18;;;;;;;7.97;3.83;;;;;;;;;;4975465;28;20434;-76
2021/01/23 12:31:44;;;;;;;9.80;4.60;;;;;;;;;;4975536;28;20034;-79
2021/01/23 12:34:11;;;;;;;10.25;4.55;;;;;;;;;;4975324;28;20033;-77
2021/01/23 12:36:37;;;;;;;9.73;3.97;;;;;;;;;;4975447;28;20441;-78
2021/01/23 12:39:03;;;;;;;10.57;3.85;;;;;;;;;;4974404;28;20105;-77
2021/01/23 12:41:29;;;;;;;9.90;4.18;;;;;;;;;;4955996;28;20023;-77
2021/01/23 12:43:55;;;;;;;14.05;4.20;;;;;;;;;;4956218;28;20328;-78
2021/01/23 12:46:21;;;;;;;9.32;4.45;;;;;;;;;;4955668;28;20034;-78
2021/01/23 12:48:49;;;;;;;9.02;4.38;;;;;;;;;;4956176;28;20015;-78
2021/01/23 12:51:17;;;;;;;7.85;4.07;;;;;;;;;;4956261;28;20070;-78
2021/01/23 12:53:43;;;;;;;15.18;4.60;;;;;;;;;;4973822;28;20043;-78
2021/01/23 12:56:09;;;;;;;8.32;4.03;;;;;;;;;;4955921;28;20090;-78
2021/01/23 12:58:35;;;;;;;9.70;4.57;;;;;;;;;;4955360;28;20470;-78
2021/01/23 13:01:01;;;;;;;9.68;5.30;;;;;;;;;;4956215;28;20055;-78
2021/01/23 13:03:27;;;;;;;9.57;4.85;;;;;;;;;;4955901;28;20106;-78
2021/01/23 13:05:53;;;;;;;11.30;5.03;;;;;;;;;;4956064;28;20045;-78
2021/01/23 13:08:19;;;;;;;10.73;5.20;;;;;;;;;;4955619;28;20352;-77
2021/01/23 13:10:45;;;;;;;10.77;5.07;;;;;;;;;;4956066;28;20019;-77
2021/01/23 13:13:11;;;;;;;12.82;5.22;;;;;;;;;;4956100;28;20018;-78
2021/01/23 13:15:37;;;;;;;10.65;5.55;;;;;;;;;;4955651;28;20579;-77
2021/01/23 13:18:03;;;;;;;15.20;7.22;;;;;;;;;;4973328;28;20023;-76
2021/01/23 13:20:29;;;;;;;11.77;5.80;;;;;;;;;;4987936;28;20030;-77
2021/01/23 13:22:55;;;;;;;12.27;6.50;;;;;;;;;;4988218;28;20361;-77
2021/01/23 13:25:22;;;;;;;9.77;5.88;;;;;;;;;;4987767;28;20495;-76
2021/01/23 13:27:48;;;;;;;11.50;5.50;;;;;;;;;;4987929;28;20027;-78
2021/01/23 13:30:15;;;;;;;12.63;6.13;;;;;;;;;;4973113;28;20027;-77
2021/01/23 13:32:43;;;;;;;13.27;6.85;;;;;;;;;;4972866;28;20022;-77
2021/01/23 13:35:09;;;;;;;12.52;6.07;;;;;;;;;;4987993;28;20027;-79
2021/01/23 13:37:35;;;;;;;9.98;5.78;;;;;;;;;;4987740;28;20031;-78
2021/01/23 13:40:01;;;;;;;9.00;5.05;;;;;;;;;;4987971;28;20030;-78
2021/01/23 13:42:27;;;;;;;10.38;5.55;;;;;;;;;;4987716;28;20023;-78
2021/01/23 13:44:53;;;;;;;11.57;5.20;;;;;;;;;;4974111;28;20046;-78
2021/01/23 13:47:19;;;;;;;13.20;6.00;;;;;;;;;;4991410;28;20069;-77
2021/01/23 13:49:45;;;;;;;11.40;5.57;;;;;;;;;;4976884;28;20058;-78
2021/01/23 13:52:11;;;;;;;11.07;4.40;;;;;;;;;;4991594;28;20090;-77
2021/01/23 13:54:37;;;;;;;11.32;4.35;;;;;;;;;;4976543;28;20121;-77
2021/01/23 13:57:03;;;;;;;13.65;5.50;;;;;;;;;;4991395;28;20065;-79
2021/01/23 13:59:29;;;;;;;13.43;4.90;;;;;;;;;;4990687;28;20122;-79
2021/01/23 14:01:55;;;;;;;14.50;7.00;;;;;;;;;;4976422;28;20030;-78
2021/01/23 14:04:21;;;;;;;12.10;5.55;;;;;;;;;;4990094;28;20030;-78
2021/01/23 14:06:47;;;;;;;12.68;5.07;;;;;;;;;;4991123;28;20109;-78
2021/01/23 14:09:13;;;;;;;10.10;5.13;;;;;;;;;;4976010;28;20027;-77
2021/01/23 14:11:39;;;;;;;14.85;5.32;;;;;;;;;;4976002;28;20019;-78
2021/01/23 14:14:05;;;;;;;15.15;4.78;;;;;;;;;;4991078;28;20037;-78
2021/01/23 14:16:31;;;;;;;10.65;5.40;;;;;;;;;;4993969;28;20102;-77
2021/01/23 14:18:57;;;;;;;14.90;5.47;;;;;;;;;;4995431;28;20121;-77
2021/01/23 14:21:23;;;;;;;13.68;5.93;;;;;;;;;;4995231;28;20019;-77
2021/01/23 14:23:49;;;;;;;11.05;4.68;;;;;;;;;;4977926;28;20046;-78
2021/01/23 14:26:16;;;;;;;13.35;4.65;;;;;;;;;;4977870;28;20027;-78
2021/01/23 14:28:42;;;;;;;10.10;5.10;;;;;;;;;;4977565;28;20053;-78